sensor_id;sensor_type;location;lat;lon;timestamp;pressure;altitude;pressure_sealevel;temperature;humidity
69171;BME280;56279;47.902;12.308;2023-12-29T00:01:53;95632.84;;;6.63;65.23
69171;BME280;56279;47.902;12.308;2023-12-29T00:03:54;95635.19;;;6.59;65.47
69171;BME280;56279;47.902;12.308;2023-12-29T00:05:56;95638.53;;;6.55;65.51
69171;BME280;56279;47.902;12.308;2023-12-29T00:07:58;95638.72;;;6.48;65.54
69171;BME280;56279;47.902;12.308;2023-12-29T00:09:59;95631.03;;;6.42;65.89
69171;BME280;56279;47.902;12.308;2023-12-29T00:12:00;95632.25;;;6.34;65.75
69171;BME280;56279;47.902;12.308;2023-12-29T00:14:02;95626.38;;;6.27;66.46
69171;BME280;56279;47.902;12.308;2023-12-29T00:16:03;95627.59;;;6.19;66.56
69171;BME280;56279;47.902;12.308;2023-12-29T00:18:05;95627.97;;;6.11;66.96
69171;BME280;56279;47.902;12.308;2023-12-29T00:20:07;95623.72;;;6.05;67.06
69171;BME280;56279;47.902;12.308;2023-12-29T00:22:11;95628.09;;;6.00;67.40
69171;BME280;56279;47.902;12.308;2023-12-29T00:24:13;95619.38;;;5.94;67.53
69171;BME280;56279;47.902;12.308;2023-12-29T00:26:17;95617.47;;;5.90;67.85
69171;BME280;56279;47.902;12.308;2023-12-29T00:28:18;95612.72;;;5.87;67.59
69171;BME280;56279;47.902;12.308;2023-12-29T00:30:20;95621.38;;;5.87;67.85
69171;BME280;56279;47.902;12.308;2023-12-29T00:32:21;95624.00;;;5.87;67.70
69171;BME280;56279;47.902;12.308;2023-12-29T00:34:22;95623.75;;;5.89;67.70
69171;BME280;56279;47.902;12.308;2023-12-29T00:36:24;95621.91;;;5.89;67.57
69171;BME280;56279;47.902;12.308;2023-12-29T00:38:29;95621.13;;;5.89;67.94
69171;BME280;56279;47.902;12.308;2023-12-29T00:40:30;95621.13;;;5.89;67.60
69171;BME280;56279;47.902;12.308;2023-12-29T00:42:32;95614.84;;;5.90;67.88
69171;BME280;56279;47.902;12.308;2023-12-29T00:44:34;95610.16;;;5.92;67.90
69171;BME280;56279;47.902;12.308;2023-12-29T00:46:36;95611.25;;;5.96;67.88
69171;BME280;56279;47.902;12.308;2023-12-29T00:48:37;95615.50;;;5.97;67.65
69171;BME280;56279;47.902;12.308;2023-12-29T00:50:38;95606.91;;;6.01;67.50
69171;BME280;56279;47.902;12.308;2023-12-29T00:52:40;95607.75;;;6.07;67.57
69171;BME280;56279;47.902;12.308;2023-12-29T00:54:41;95601.78;;;6.11;67.26
69171;BME280;56279;47.902;12.308;2023-12-29T00:56:48;95602.41;;;6.18;67.42
69171;BME280;56279;47.902;12.308;2023-12-29T00:58:49;95596.94;;;6.20;67.56
69171;BME280;56279;47.902;12.308;2023-12-29T01:00:51;95599.84;;;6.23;67.91
69171;BME280;56279;47.902;12.308;2023-12-29T01:02:52;95597.00;;;6.25;67.49
69171;BME280;56279;47.902;12.308;2023-12-29T01:04:54;95591.03;;;6.30;67.79
69171;BME280;56279;47.902;12.308;2023-12-29T01:06:55;95605.50;;;6.32;67.67
69171;BME280;56279;47.902;12.308;2023-12-29T01:08:56;95601.81;;;6.33;67.86
69171;BME280;56279;47.902;12.308;2023-12-29T01:10:58;95594.50;;;6.35;67.86
69171;BME280;56279;47.902;12.308;2023-12-29T01:12:59;95595.03;;;6.37;67.91
69171;BME280;56279;47.902;12.308;2023-12-29T01:15:00;95599.53;;;6.37;67.94
69171;BME280;56279;47.902;12.308;2023-12-29T01:17:02;95604.50;;;6.38;67.89
69171;BME280;56279;47.902;12.308;2023-12-29T01:19:04;95594.34;;;6.42;67.74
69171;BME280;56279;47.902;12.308;2023-12-29T01:21:05;95595.66;;;6.44;67.60
69171;BME280;56279;47.902;12.308;2023-12-29T01:23:07;95590.41;;;6.44;67.60
69171;BME280;56279;47.902;12.308;2023-12-29T01:25:09;95592.00;;;6.45;67.69
69171;BME280;56279;47.902;12.308;2023-12-29T01:27:10;95584.16;;;6.45;68.00
69171;BME280;56279;47.902;12.308;2023-12-29T01:29:12;95574.22;;;6.47;67.60
69171;BME280;56279;47.902;12.308;2023-12-29T01:31:16;95575.47;;;6.45;68.12
69171;BME280;56279;47.902;12.308;2023-12-29T01:33:17;95568.91;;;6.42;68.39
69171;BME280;56279;47.902;12.308;2023-12-29T01:35:20;95584.09;;;6.40;68.53
69171;BME280;56279;47.902;12.308;2023-12-29T01:37:21;95580.19;;;6.43;68.66
69171;BME280;56279;47.902;12.308;2023-12-29T01:39:22;95576.22;;;6.40;68.81
69171;BME280;56279;47.902;12.308;2023-12-29T01:41:24;95578.00;;;6.35;68.67
69171;BME280;56279;47.902;12.308;2023-12-29T01:43:25;95581.84;;;6.27;69.02
69171;BME280;56279;47.902;12.308;2023-12-29T01:45:26;95576.78;;;6.20;69.28
69171;BME280;56279;47.902;12.308;2023-12-29T01:47:28;95577.50;;;6.16;69.34
69171;BME280;56279;47.902;12.308;2023-12-29T01:49:29;95567.97;;;6.10;70.24
69171;BME280;56279;47.902;12.308;2023-12-29T01:51:32;95564.75;;;6.03;70.21
69171;BME280;56279;47.902;12.308;2023-12-29T01:53:33;95569.69;;;5.99;70.51
69171;BME280;56279;47.902;12.308;2023-12-29T01:55:35;95580.09;;;5.94;70.20
69171;BME280;56279;47.902;12.308;2023-12-29T01:57:36;95586.28;;;5.88;70.46
69171;BME280;56279;47.902;12.308;2023-12-29T01:59:40;95578.81;;;5.80;71.09
69171;BME280;56279;47.902;12.308;2023-12-29T02:01:42;95577.63;;;5.71;71.30
69171;BME280;56279;47.902;12.308;2023-12-29T02:03:45;95570.72;;;5.65;71.07
69171;BME280;56279;47.902;12.308;2023-12-29T02:05:47;95577.81;;;5.65;71.64
69171;BME280;56279;47.902;12.308;2023-12-29T02:07:51;95567.25;;;5.59;71.89
69171;BME280;56279;47.902;12.308;2023-12-29T02:09:53;95567.97;;;5.55;72.17
69171;BME280;56279;47.902;12.308;2023-12-29T02:11:55;95562.97;;;5.53;72.22
69171;BME280;56279;47.902;12.308;2023-12-29T02:13:58;95560.66;;;5.57;72.28
69171;BME280;56279;47.902;12.308;2023-12-29T02:16:12;95558.34;;;5.60;72.00
69171;BME280;56279;47.902;12.308;2023-12-29T02:18:16;95560.50;;;5.64;72.67
69171;BME280;56279;47.902;12.308;2023-12-29T02:20:19;95573.66;;;5.69;72.04
69171;BME280;56279;47.902;12.308;2023-12-29T02:22:20;95552.25;;;5.72;72.25
69171;BME280;56279;47.902;12.308;2023-12-29T02:24:21;95555.63;;;5.72;72.53
69171;BME280;56279;47.902;12.308;2023-12-29T02:26:29;95548.34;;;5.74;72.27
69171;BME280;56279;47.902;12.308;2023-12-29T02:28:34;95541.69;;;5.83;72.19
69171;BME280;56279;47.902;12.308;2023-12-29T02:30:44;95541.59;;;5.95;71.86
69171;BME280;56279;47.902;12.308;2023-12-29T02:32:47;95545.38;;;6.04;71.12
69171;BME280;56279;47.902;12.308;2023-12-29T02:34:52;95544.94;;;6.12;71.46
69171;BME280;56279;47.902;12.308;2023-12-29T02:36:55;95537.16;;;6.17;71.25
69171;BME280;56279;47.902;12.308;2023-12-29T02:38:59;95527.75;;;6.21;71.12
69171;BME280;56279;47.902;12.308;2023-12-29T02:41:02;95523.63;;;6.25;70.98
69171;BME280;56279;47.902;12.308;2023-12-29T02:43:05;95516.38;;;6.32;70.27
69171;BME280;56279;47.902;12.308;2023-12-29T02:45:06;95512.22;;;6.36;70.19
69171;BME280;56279;47.902;12.308;2023-12-29T02:47:08;95510.47;;;6.42;70.31
69171;BME280;56279;47.902;12.308;2023-12-29T02:49:10;95518.34;;;6.47;70.15
69171;BME280;56279;47.902;12.308;2023-12-29T02:51:12;95510.28;;;6.48;69.77
69171;BME280;56279;47.902;12.308;2023-12-29T02:53:13;95512.38;;;6.51;69.68
69171;BME280;56279;47.902;12.308;2023-12-29T02:55:15;95505.09;;;6.53;70.06
69171;BME280;56279;47.902;12.308;2023-12-29T02:57:16;95503.81;;;6.56;69.60
69171;BME280;56279;47.902;12.308;2023-12-29T02:59:17;95510.94;;;6.60;69.23
69171;BME280;56279;47.902;12.308;2023-12-29T03:01:19;95494.69;;;6.63;69.30
69171;BME280;56279;47.902;12.308;2023-12-29T03:03:20;95493.66;;;6.64;69.34
69171;BME280;56279;47.902;12.308;2023-12-29T03:05:22;95498.09;;;6.64;68.95
69171;BME280;56279;47.902;12.308;2023-12-29T03:07:23;95492.06;;;6.63;69.11
69171;BME280;56279;47.902;12.308;2023-12-29T03:09:24;95499.44;;;6.66;68.83
69171;BME280;56279;47.902;12.308;2023-12-29T03:11:25;95490.78;;;6.66;68.91
69171;BME280;56279;47.902;12.308;2023-12-29T03:13:27;95488.41;;;6.64;68.69
69171;BME280;56279;47.902;12.308;2023-12-29T03:15:28;95485.25;;;6.62;69.27
69171;BME280;56279;47.902;12.308;2023-12-29T03:17:29;95490.19;;;6.59;69.07
69171;BME280;56279;47.902;12.308;2023-12-29T03:19:30;95490.69;;;6.56;69.29
69171;BME280;56279;47.902;12.308;2023-12-29T03:21:32;95488.56;;;6.53;69.50
69171;BME280;56279;47.902;12.308;2023-12-29T03:23:33;95498.25;;;6.52;69.36
69171;BME280;56279;47.902;12.308;2023-12-29T03:25:35;95498.00;;;6.54;69.24
69171;BME280;56279;47.902;12.308;2023-12-29T03:27:36;95491.47;;;6.56;69.37
69171;BME280;56279;47.902;12.308;2023-12-29T03:29:38;95471.81;;;6.59;69.05
69171;BME280;56279;47.902;12.308;2023-12-29T03:31:39;95470.53;;;6.61;68.89
69171;BME280;56279;47.902;12.308;2023-12-29T03:33:41;95469.25;;;6.64;68.75
69171;BME280;56279;47.902;12.308;2023-12-29T03:35:42;95480.81;;;6.68;68.57
69171;BME280;56279;47.902;12.308;2023-12-29T03:37:44;95474.28;;;6.70;68.60
69171;BME280;56279;47.902;12.308;2023-12-29T03:39:45;95468.03;;;6.71;68.24
69171;BME280;56279;47.902;12.308;2023-12-29T03:41:47;95477.22;;;6.74;67.84
69171;BME280;56279;47.902;12.308;2023-12-29T03:43:48;95483.81;;;6.76;67.84
69171;BME280;56279;47.902;12.308;2023-12-29T03:45:50;95474.88;;;6.77;67.62
69171;BME280;56279;47.902;12.308;2023-12-29T03:47:52;95475.41;;;6.79;67.85
69171;BME280;56279;47.902;12.308;2023-12-29T03:49:53;95474.66;;;6.79;67.52
69171;BME280;56279;47.902;12.308;2023-12-29T03:51:54;95468.84;;;6.77;67.44
69171;BME280;56279;47.902;12.308;2023-12-29T03:53:55;95477.22;;;6.74;67.83
69171;BME280;56279;47.902;12.308;2023-12-29T03:55:57;95473.00;;;6.73;67.84
69171;BME280;56279;47.902;12.308;2023-12-29T03:57:58;95461.97;;;6.71;67.38
69171;BME280;56279;47.902;12.308;2023-12-29T04:00:01;95461.97;;;6.71;67.34
69171;BME280;56279;47.902;12.308;2023-12-29T04:02:02;95474.84;;;6.72;67.39
69171;BME280;56279;47.902;12.308;2023-12-29T04:04:04;95478.31;;;6.78;67.03
69171;BME280;56279;47.902;12.308;2023-12-29T04:06:06;95474.41;;;6.80;66.75
69171;BME280;56279;47.902;12.308;2023-12-29T04:08:08;95473.91;;;6.83;66.22
69171;BME280;56279;47.902;12.308;2023-12-29T04:10:10;95475.25;;;6.86;66.02
69171;BME280;56279;47.902;12.308;2023-12-29T04:12:12;95483.34;;;6.84;66.49
69171;BME280;56279;47.902;12.308;2023-12-29T04:14:13;95479.38;;;6.82;66.93
69171;BME280;56279;47.902;12.308;2023-12-29T04:16:14;95467.56;;;6.79;67.23
69171;BME280;56279;47.902;12.308;2023-12-29T04:18:21;95457.03;;;6.74;67.47
69171;BME280;56279;47.902;12.308;2023-12-29T04:20:22;95463.00;;;6.70;67.49
69171;BME280;56279;47.902;12.308;2023-12-29T04:22:23;95448.06;;;6.70;67.46
69171;BME280;56279;47.902;12.308;2023-12-29T04:24:25;95459.09;;;6.72;67.62
69171;BME280;56279;47.902;12.308;2023-12-29T04:26:26;95458.06;;;6.73;67.55
69171;BME280;56279;47.902;12.308;2023-12-29T04:28:27;95459.66;;;6.74;67.40
69171;BME280;56279;47.902;12.308;2023-12-29T04:30:30;95456.47;;;6.72;67.41
69171;BME280;56279;47.902;12.308;2023-12-29T04:32:33;95453.09;;;6.72;67.72
69171;BME280;56279;47.902;12.308;2023-12-29T04:34:34;95455.44;;;6.73;67.30
69171;BME280;56279;47.902;12.308;2023-12-29T04:36:35;95461.50;;;6.74;67.27
69171;BME280;56279;47.902;12.308;2023-12-29T04:38:37;95471.97;;;6.74;67.28
69171;BME280;56279;47.902;12.308;2023-12-29T04:40:40;95464.59;;;6.71;67.70
69171;BME280;56279;47.902;12.308;2023-12-29T04:42:41;95470.06;;;6.64;67.37
69171;BME280;56279;47.902;12.308;2023-12-29T04:44:43;95468.72;;;6.62;67.36
69171;BME280;56279;47.902;12.308;2023-12-29T04:46:45;95468.97;;;6.60;67.75
69171;BME280;56279;47.902;12.308;2023-12-29T04:48:46;95476.84;;;6.60;67.63
69171;BME280;56279;47.902;12.308;2023-12-29T04:50:47;95479.22;;;6.62;67.86
69171;BME280;56279;47.902;12.308;2023-12-29T04:52:48;95480.00;;;6.62;67.91
69171;BME280;56279;47.902;12.308;2023-12-29T04:54:50;95473.69;;;6.63;67.66
69171;BME280;56279;47.902;12.308;2023-12-29T04:56:51;95473.69;;;6.63;67.53
69171;BME280;56279;47.902;12.308;2023-12-29T04:58:52;95471.88;;;6.64;68.25
69171;BME280;56279;47.902;12.308;2023-12-29T05:00:54;95475.28;;;6.64;67.67
69171;BME280;56279;47.902;12.308;2023-12-29T05:02:55;95491.03;;;6.64;68.06
69171;BME280;56279;47.902;12.308;2023-12-29T05:07:01;95491.53;;;6.61;68.58
69171;BME280;56279;47.902;12.308;2023-12-29T05:09:02;95483.91;;;6.60;68.42
69171;BME280;56279;47.902;12.308;2023-12-29T05:11:03;95488.34;;;6.59;68.88
69171;BME280;56279;47.902;12.308;2023-12-29T05:13:06;95494.41;;;6.60;68.84
69171;BME280;56279;47.902;12.308;2023-12-29T05:15:07;95496.50;;;6.63;68.60
69171;BME280;56279;47.902;12.308;2023-12-29T05:17:08;95486.00;;;6.63;68.85
69171;BME280;56279;47.902;12.308;2023-12-29T05:19:10;95472.91;;;6.63;69.05
69171;BME280;56279;47.902;12.308;2023-12-29T05:21:15;95490.22;;;6.64;69.01
69171;BME280;56279;47.902;12.308;2023-12-29T05:23:17;95492.59;;;6.65;69.12
69171;BME280;56279;47.902;12.308;2023-12-29T05:25:18;95487.31;;;6.60;69.73
69171;BME280;56279;47.902;12.308;2023-12-29T05:27:23;95482.50;;;6.52;69.93
69171;BME280;56279;47.902;12.308;2023-12-29T05:29:24;95485.88;;;6.48;70.34
69171;BME280;56279;47.902;12.308;2023-12-29T05:31:25;95484.53;;;6.45;70.50
69171;BME280;56279;47.902;12.308;2023-12-29T05:33:27;95481.88;;;6.40;71.13
69171;BME280;56279;47.902;12.308;2023-12-29T05:35:28;95486.56;;;6.38;71.25
69171;BME280;56279;47.902;12.308;2023-12-29T05:37:29;95491.31;;;6.41;71.04
69171;BME280;56279;47.902;12.308;2023-12-29T05:39:31;95490.81;;;6.44;71.12
69171;BME280;56279;47.902;12.308;2023-12-29T05:41:32;95487.16;;;6.45;70.91
69171;BME280;56279;47.902;12.308;2023-12-29T05:43:33;95485.63;;;6.49;70.52
69171;BME280;56279;47.902;12.308;2023-12-29T05:45:35;95486.16;;;6.51;70.07
69171;BME280;56279;47.902;12.308;2023-12-29T05:47:37;95492.53;;;6.55;69.87
69171;BME280;56279;47.902;12.308;2023-12-29T05:49:38;95499.09;;;6.58;70.18
69171;BME280;56279;47.902;12.308;2023-12-29T05:51:40;95492.00;;;6.58;70.51
69171;BME280;56279;47.902;12.308;2023-12-29T05:53:42;95494.63;;;6.58;70.05
69171;BME280;56279;47.902;12.308;2023-12-29T05:55:44;95504.09;;;6.59;69.93
69171;BME280;56279;47.902;12.308;2023-12-29T05:57:46;95507.00;;;6.63;69.72
69171;BME280;56279;47.902;12.308;2023-12-29T05:59:47;95505.16;;;6.63;69.65
69171;BME280;56279;47.902;12.308;2023-12-29T06:01:48;95505.44;;;6.62;69.62
69171;BME280;56279;47.902;12.308;2023-12-29T06:03:50;95499.94;;;6.63;69.37
69171;BME280;56279;47.902;12.308;2023-12-29T06:05:51;95503.66;;;6.67;69.16
69171;BME280;56279;47.902;12.308;2023-12-29T06:07:53;95494.78;;;6.73;69.08
69171;BME280;56279;47.902;12.308;2023-12-29T06:09:54;95510.03;;;6.76;68.72
69171;BME280;56279;47.902;12.308;2023-12-29T06:11:55;95506.34;;;6.77;68.62
69171;BME280;56279;47.902;12.308;2023-12-29T06:13:57;95504.00;;;6.76;69.13
69171;BME280;56279;47.902;12.308;2023-12-29T06:15:58;95500.28;;;6.72;68.93
69171;BME280;56279;47.902;12.308;2023-12-29T06:18:00;95501.31;;;6.71;69.07
69171;BME280;56279;47.902;12.308;2023-12-29T06:20:01;95498.94;;;6.69;69.53
69171;BME280;56279;47.902;12.308;2023-12-29T06:22:06;95504.69;;;6.66;69.65
69171;BME280;56279;47.902;12.308;2023-12-29T06:24:12;95502.31;;;6.65;70.24
69171;BME280;56279;47.902;12.308;2023-12-29T06:26:17;95497.84;;;6.65;70.79
69171;BME280;56279;47.902;12.308;2023-12-29T06:28:19;95487.59;;;6.64;70.54
69171;BME280;56279;47.902;12.308;2023-12-29T06:30:21;95492.31;;;6.62;71.09
69171;BME280;56279;47.902;12.308;2023-12-29T06:32:25;95487.31;;;6.60;70.95
69171;BME280;56279;47.902;12.308;2023-12-29T06:34:30;95488.84;;;6.56;71.26
69171;BME280;56279;47.902;12.308;2023-12-29T06:36:32;95493.47;;;6.49;71.54
69171;BME280;56279;47.902;12.308;2023-12-29T06:38:34;95509.94;;;6.45;71.94
69171;BME280;56279;47.902;12.308;2023-12-29T06:40:35;95498.63;;;6.39;72.13
69171;BME280;56279;47.902;12.308;2023-12-29T06:42:37;95498.81;;;6.33;72.55
69171;BME280;56279;47.902;12.308;2023-12-29T06:44:38;95501.69;;;6.31;72.90
69171;BME280;56279;47.902;12.308;2023-12-29T06:46:40;95505.34;;;6.30;72.90
69171;BME280;56279;47.902;12.308;2023-12-29T06:48:41;95517.88;;;6.28;72.40
69171;BME280;56279;47.902;12.308;2023-12-29T06:50:42;95514.50;;;6.28;72.96
69171;BME280;56279;47.902;12.308;2023-12-29T06:52:43;95507.91;;;6.25;73.09
69171;BME280;56279;47.902;12.308;2023-12-29T06:54:45;95498.72;;;6.22;73.16
69171;BME280;56279;47.902;12.308;2023-12-29T06:56:47;95502.13;;;6.23;73.33
69171;BME280;56279;47.902;12.308;2023-12-29T06:58:49;95505.84;;;6.27;73.19
69171;BME280;56279;47.902;12.308;2023-12-29T07:00:51;95501.41;;;6.28;73.04
69171;BME280;56279;47.902;12.308;2023-12-29T07:02:52;95502.69;;;6.25;73.06
69171;BME280;56279;47.902;12.308;2023-12-29T07:04:53;95508.94;;;6.24;73.29
69171;BME280;56279;47.902;12.308;2023-12-29T07:06:55;95523.63;;;6.25;73.59
69171;BME280;56279;47.902;12.308;2023-12-29T07:08:56;95534.66;;;6.27;73.34
69171;BME280;56279;47.902;12.308;2023-12-29T07:10:58;95531.78;;;6.28;73.30
69171;BME280;56279;47.902;12.308;2023-12-29T07:12:59;95526.31;;;6.30;73.79
69171;BME280;56279;47.902;12.308;2023-12-29T07:15:01;95533.38;;;6.30;73.39
69171;BME280;56279;47.902;12.308;2023-12-29T07:17:03;95530.75;;;6.30;73.91
69171;BME280;56279;47.902;12.308;2023-12-29T07:19:05;95540.19;;;6.31;73.70
69171;BME280;56279;47.902;12.308;2023-12-29T07:21:06;95529.50;;;6.32;73.67
69171;BME280;56279;47.902;12.308;2023-12-29T07:23:07;95531.06;;;6.33;73.48
69171;BME280;56279;47.902;12.308;2023-12-29T07:25:09;95526.34;;;6.35;73.20
69171;BME280;56279;47.902;12.308;2023-12-29T07:27:10;95521.19;;;6.40;72.71
69171;BME280;56279;47.902;12.308;2023-12-29T07:29:12;95523.38;;;6.48;72.75
69171;BME280;56279;47.902;12.308;2023-12-29T07:31:13;95527.94;;;6.58;71.31
69171;BME280;56279;47.902;12.308;2023-12-29T07:33:14;95521.69;;;6.64;71.72
69171;BME280;56279;47.902;12.308;2023-12-29T07:35:16;95528.03;;;6.68;71.45
69171;BME280;56279;47.902;12.308;2023-12-29T07:37:19;95529.91;;;6.72;71.69
69171;BME280;56279;47.902;12.308;2023-12-29T07:39:20;95538.09;;;6.76;71.70
69171;BME280;56279;47.902;12.308;2023-12-29T07:41:21;95532.91;;;6.81;71.63
69171;BME280;56279;47.902;12.308;2023-12-29T07:43:23;95538.97;;;6.86;71.28
69171;BME280;56279;47.902;12.308;2023-12-29T07:45:24;95536.16;;;6.93;70.80
69171;BME280;56279;47.902;12.308;2023-12-29T07:47:25;95535.16;;;6.99;70.66
69171;BME280;56279;47.902;12.308;2023-12-29T07:49:29;95539.16;;;7.07;70.28
69171;BME280;56279;47.902;12.308;2023-12-29T07:51:32;95537.38;;;7.12;69.91
69171;BME280;56279;47.902;12.308;2023-12-29T07:53:33;95532.47;;;7.21;68.69
69171;BME280;56279;47.902;12.308;2023-12-29T07:55:37;95530.97;;;7.30;68.12
69171;BME280;56279;47.902;12.308;2023-12-29T07:57:40;95528.13;;;7.36;68.08
69171;BME280;56279;47.902;12.308;2023-12-29T07:59:42;95532.13;;;7.44;67.62
69171;BME280;56279;47.902;12.308;2023-12-29T08:01:43;95525.31;;;7.48;67.65
69171;BME280;56279;47.902;12.308;2023-12-29T08:03:44;95529.00;;;7.52;68.34
69171;BME280;56279;47.902;12.308;2023-12-29T08:05:46;95520.91;;;7.53;68.26
69171;BME280;56279;47.902;12.308;2023-12-29T08:07:47;95528.53;;;7.55;68.09
69171;BME280;56279;47.902;12.308;2023-12-29T08:09:49;95528.78;;;7.58;68.18
69171;BME280;56279;47.902;12.308;2023-12-29T08:11:50;95533.28;;;7.58;67.99
69171;BME280;56279;47.902;12.308;2023-12-29T08:13:51;95540.41;;;7.62;67.53
69171;BME280;56279;47.902;12.308;2023-12-29T08:15:53;95539.88;;;7.65;67.46
69171;BME280;56279;47.902;12.308;2023-12-29T08:17:55;95538.84;;;7.66;67.22
69171;BME280;56279;47.902;12.308;2023-12-29T08:19:56;95542.00;;;7.68;67.21
69171;BME280;56279;47.902;12.308;2023-12-29T08:21:58;95543.34;;;7.71;67.14
69171;BME280;56279;47.902;12.308;2023-12-29T08:23:59;95545.19;;;7.76;67.04
69171;BME280;56279;47.902;12.308;2023-12-29T08:26:02;95546.84;;;7.82;66.69
69171;BME280;56279;47.902;12.308;2023-12-29T08:28:04;95546.59;;;7.88;66.51
69171;BME280;56279;47.902;12.308;2023-12-29T08:30:06;95543.75;;;7.95;65.96
69171;BME280;56279;47.902;12.308;2023-12-29T08:32:08;95549.84;;;8.00;65.98
69171;BME280;56279;47.902;12.308;2023-12-29T08:34:09;95555.88;;;8.06;65.75
69171;BME280;56279;47.902;12.308;2023-12-29T08:36:11;95557.75;;;8.10;65.56
69171;BME280;56279;47.902;12.308;2023-12-29T08:38:13;95560.41;;;8.15;64.88
69171;BME280;56279;47.902;12.308;2023-12-29T08:40:14;95560.16;;;8.17;65.13
69171;BME280;56279;47.902;12.308;2023-12-29T08:42:16;95554.88;;;8.17;64.69
69171;BME280;56279;47.902;12.308;2023-12-29T08:44:17;95549.41;;;8.18;64.91
69171;BME280;56279;47.902;12.308;2023-12-29T08:46:19;95556.50;;;8.23;64.58
69171;BME280;56279;47.902;12.308;2023-12-29T08:48:22;95561.28;;;8.31;64.67
69171;BME280;56279;47.902;12.308;2023-12-29T08:50:24;95552.13;;;8.39;64.33
69171;BME280;56279;47.902;12.308;2023-12-29T08:52:25;95547.44;;;8.46;64.23
69171;BME280;56279;47.902;12.308;2023-12-29T08:54:26;95550.34;;;8.54;64.14
69171;BME280;56279;47.902;12.308;2023-12-29T08:56:28;95549.59;;;8.59;63.35
69171;BME280;56279;47.902;12.308;2023-12-29T08:58:31;95552.75;;;8.61;62.76
69171;BME280;56279;47.902;12.308;2023-12-29T09:00:33;95544.59;;;8.62;62.92
69171;BME280;56279;47.902;12.308;2023-12-29T09:02:35;95540.94;;;8.63;62.99
69171;BME280;56279;47.902;12.308;2023-12-29T09:04:36;95539.06;;;8.64;63.10
69171;BME280;56279;47.902;12.308;2023-12-29T09:06:38;95542.00;;;8.67;62.78
69171;BME280;56279;47.902;12.308;2023-12-29T09:08:39;95538.84;;;8.70;62.58
69171;BME280;56279;47.902;12.308;2023-12-29T09:10:41;95531.22;;;8.74;62.28
69171;BME280;56279;47.902;12.308;2023-12-29T09:12:43;95542.78;;;8.78;62.67
69171;BME280;56279;47.902;12.308;2023-12-29T09:14:45;95528.09;;;8.82;62.83
69171;BME280;56279;47.902;12.308;2023-12-29T09:16:46;95518.63;;;8.86;62.54
69171;BME280;56279;47.902;12.308;2023-12-29T09:18:48;95520.19;;;8.92;62.57
69171;BME280;56279;47.902;12.308;2023-12-29T09:20:50;95524.66;;;8.96;62.43
69171;BME280;56279;47.902;12.308;2023-12-29T09:22:58;95528.09;;;9.02;62.00
69171;BME280;56279;47.902;12.308;2023-12-29T09:24:59;95538.88;;;9.05;62.46
69171;BME280;56279;47.902;12.308;2023-12-29T09:27:01;95532.31;;;9.08;62.25
69171;BME280;56279;47.902;12.308;2023-12-29T09:29:02;95535.75;;;9.14;62.30
69171;BME280;56279;47.902;12.308;2023-12-29T09:31:04;95530.50;;;9.14;62.64
69171;BME280;56279;47.902;12.308;2023-12-29T09:33:05;95536.78;;;9.13;62.52
69171;BME280;56279;47.902;12.308;2023-12-29T09:35:06;95533.41;;;9.12;62.28
69171;BME280;56279;47.902;12.308;2023-12-29T09:37:08;95535.75;;;9.14;62.20
69171;BME280;56279;47.902;12.308;2023-12-29T09:39:10;95535.47;;;9.15;62.43
69171;BME280;56279;47.902;12.308;2023-12-29T09:41:15;95538.91;;;9.16;62.12
69171;BME280;56279;47.902;12.308;2023-12-29T09:43:20;95532.09;;;9.15;61.82
69171;BME280;56279;47.902;12.308;2023-12-29T09:45:23;95526.81;;;9.15;61.59
69171;BME280;56279;47.902;12.308;2023-12-29T09:49:51;95514.44;;;9.20;61.43
69171;BME280;56279;47.902;12.308;2023-12-29T09:51:55;95517.59;;;9.22;61.58
69171;BME280;56279;47.902;12.308;2023-12-29T09:53:58;95514.44;;;9.25;61.47
69171;BME280;56279;47.902;12.308;2023-12-29T09:56:00;95508.66;;;9.28;61.50
69171;BME280;56279;47.902;12.308;2023-12-29T09:58:02;95508.09;;;9.31;61.62
69171;BME280;56279;47.902;12.308;2023-12-29T10:00:05;95507.59;;;9.34;61.51
69171;BME280;56279;47.902;12.308;2023-12-29T10:02:14;95501.28;;;9.40;61.30
69171;BME280;56279;47.902;12.308;2023-12-29T10:04:19;95493.91;;;9.42;61.66
69171;BME280;56279;47.902;12.308;2023-12-29T10:06:23;95500.22;;;9.46;61.78
69171;BME280;56279;47.902;12.308;2023-12-29T10:08:27;95491.78;;;9.49;61.61
69171;BME280;56279;47.902;12.308;2023-12-29T10:10:30;95487.28;;;9.55;61.66
69171;BME280;56279;47.902;12.308;2023-12-29T10:12:32;95485.97;;;9.62;61.36
69171;BME280;56279;47.902;12.308;2023-12-29T10:14:41;95489.63;;;9.71;60.62
69171;BME280;56279;47.902;12.308;2023-12-29T10:16:50;95488.56;;;9.78;60.40
69171;BME280;56279;47.902;12.308;2023-12-29T10:21:29;95488.28;;;9.84;59.97
69171;BME280;56279;47.902;12.308;2023-12-29T10:23:39;95493.28;;;9.91;59.86
69171;BME280;56279;47.902;12.308;2023-12-29T10:25:42;95490.88;;;9.99;59.57
69171;BME280;56279;47.902;12.308;2023-12-29T10:27:44;95492.19;;;10.07;59.10
69171;BME280;56279;47.902;12.308;2023-12-29T10:29:46;95479.81;;;10.12;58.67
69171;BME280;56279;47.902;12.308;2023-12-29T10:31:47;95482.44;;;10.17;59.09
69171;BME280;56279;47.902;12.308;2023-12-29T10:33:48;95483.69;;;10.25;58.93
69171;BME280;56279;47.902;12.308;2023-12-29T10:35:59;95469.69;;;10.29;58.35
69171;BME280;56279;47.902;12.308;2023-12-29T10:40:19;95479.16;;;10.40;58.04
69171;BME280;56279;47.902;12.308;2023-12-29T10:42:21;95472.28;;;10.45;57.89
69171;BME280;56279;47.902;12.308;2023-12-29T10:44:23;95473.28;;;10.49;57.94
69171;BME280;56279;47.902;12.308;2023-12-29T10:46:25;95474.59;;;10.51;57.74
69171;BME280;56279;47.902;12.308;2023-12-29T10:48:27;95479.34;;;10.54;57.76
69171;BME280;56279;47.902;12.308;2023-12-29T10:50:28;95475.09;;;10.58;57.74
69171;BME280;56279;47.902;12.308;2023-12-29T10:52:30;95473.47;;;10.62;57.59
69171;BME280;56279;47.902;12.308;2023-12-29T10:54:32;95479.53;;;10.68;57.64
69171;BME280;56279;47.902;12.308;2023-12-29T10:56:34;95473.16;;;10.74;57.63